createdAt,value
2018-07-05T00:00:36.406Z,19.66
2018-07-05T00:01:36.332Z,19.61
2018-07-05T00:02:36.280Z,19.61
2018-07-05T00:03:36.190Z,19.59
2018-07-05T00:04:36.131Z,19.56
2018-07-05T00:05:36.054Z,19.55
2018-07-05T00:06:35.991Z,19.56
2018-07-05T00:07:35.916Z,19.44
2018-07-05T00:08:35.849Z,19.50
2018-07-05T00:09:35.776Z,19.55
2018-07-05T00:10:35.749Z,19.39
2018-07-05T00:11:35.627Z,19.47
2018-07-05T00:12:35.570Z,19.39
2018-07-05T00:13:35.492Z,19.32
2018-07-05T00:14:35.422Z,19.40
2018-07-05T00:15:35.352Z,19.36
2018-07-05T00:16:35.284Z,19.39
2018-07-05T00:17:35.249Z,19.44
2018-07-05T00:18:35.151Z,19.40
2018-07-05T00:19:35.072Z,19.36
2018-07-05T00:20:35.001Z,19.33
2018-07-05T00:21:34.950Z,19.29
2018-07-05T00:22:34.872Z,19.31
2018-07-05T00:23:34.805Z,19.28
2018-07-05T00:24:34.722Z,19.25
2018-07-05T00:25:34.649Z,19.31
2018-07-05T00:26:34.575Z,19.33
2018-07-05T00:27:34.521Z,19.21
2018-07-05T00:28:34.439Z,19.29
2018-07-05T00:29:34.371Z,19.23
2018-07-05T00:30:34.291Z,19.29
2018-07-05T00:31:34.230Z,19.29
2018-07-05T00:32:34.161Z,19.25
2018-07-05T00:33:34.084Z,19.28
2018-07-05T00:34:34.042Z,19.26
2018-07-05T00:35:33.952Z,19.22
2018-07-05T00:36:33.878Z,19.23
2018-07-05T00:37:33.813Z,19.29
2018-07-05T00:38:33.736Z,19.11
2018-07-05T00:39:33.680Z,19.08
2018-07-05T00:40:33.620Z,19.00
2018-07-05T00:41:33.691Z,19.02
2018-07-05T00:42:33.508Z,19.10
2018-07-05T00:43:33.417Z,19.10
2018-07-05T00:44:33.321Z,19.13
2018-07-05T00:45:33.298Z,19.21
2018-07-05T00:46:33.199Z,19.25
2018-07-05T00:47:33.108Z,19.19
2018-07-05T00:48:33.029Z,19.14
2018-07-05T00:49:32.966Z,19.21
2018-07-05T00:50:32.889Z,19.13
2018-07-05T00:51:32.826Z,19.08
2018-07-05T00:52:32.755Z,19.07
2018-07-05T00:53:32.676Z,19.07
2018-07-05T00:54:32.628Z,18.99
2018-07-05T00:55:32.555Z,18.87
2018-07-05T00:56:32.509Z,18.92
2018-07-05T00:57:32.395Z,19.04
2018-07-05T00:58:32.362Z,19.00
2018-07-05T00:59:32.252Z,18.95
2018-07-05T01:00:32.190Z,18.90
2018-07-05T01:01:32.127Z,18.95
2018-07-05T01:02:32.043Z,18.99
2018-07-05T01:03:32.000Z,18.99
2018-07-05T01:04:31.911Z,18.95
2018-07-05T01:05:31.833Z,18.92
2018-07-05T01:06:31.814Z,18.95
2018-07-05T01:07:31.694Z,18.88
2018-07-05T01:08:31.629Z,18.87
2018-07-05T01:09:31.556Z,18.90
2018-07-05T01:10:31.528Z,18.78
2018-07-05T01:11:31.422Z,18.87
2018-07-05T01:12:31.399Z,18.88
2018-07-05T01:13:31.273Z,18.87
2018-07-05T01:14:31.219Z,18.88
2018-07-05T01:15:31.140Z,18.81
2018-07-05T01:16:31.057Z,18.87
2018-07-05T01:17:31.016Z,18.87
2018-07-05T01:18:30.918Z,18.76
2018-07-05T01:19:30.852Z,18.80
2018-07-05T01:20:30.776Z,18.76
2018-07-05T01:21:30.698Z,18.80
2018-07-05T01:22:30.635Z,18.63
2018-07-05T01:23:30.598Z,18.63
2018-07-05T01:24:30.495Z,18.54
2018-07-05T01:25:30.433Z,18.55
2018-07-05T01:26:30.358Z,18.52
2018-07-05T01:27:30.287Z,18.52
2018-07-05T01:28:30.235Z,18.52
2018-07-05T01:29:30.161Z,18.54
2018-07-05T01:30:30.079Z,18.51
2018-07-05T01:31:30.026Z,18.51
2018-07-05T01:32:29.934Z,18.58
2018-07-05T01:33:29.863Z,18.54
2018-07-05T01:34:29.800Z,18.60
2018-07-05T01:35:29.714Z,18.60
2018-07-05T01:36:29.652Z,18.57
2018-07-05T01:37:29.581Z,18.62
2018-07-05T01:38:29.524Z,18.54
2018-07-05T01:39:29.456Z,18.57
2018-07-05T01:40:29.361Z,18.65
2018-07-05T01:41:29.312Z,18.52
2018-07-05T01:42:29.235Z,18.60
2018-07-05T01:43:29.178Z,18.66
2018-07-05T01:44:29.092Z,18.63
2018-07-05T01:45:29.009Z,18.69
2018-07-05T01:46:28.971Z,18.55
2018-07-05T01:47:28.880Z,18.69
2018-07-05T01:48:28.806Z,18.60
2018-07-05T01:49:28.755Z,18.69
2018-07-05T01:50:28.668Z,18.66
2018-07-05T01:51:28.622Z,18.57
2018-07-05T01:52:28.572Z,18.58
2018-07-05T01:53:28.448Z,18.58
2018-07-05T01:54:28.382Z,18.60
2018-07-05T01:55:28.313Z,18.65
2018-07-05T01:56:28.250Z,18.66
2018-07-05T01:57:28.195Z,18.54
2018-07-05T01:58:28.095Z,18.52
2018-07-05T01:59:28.018Z,18.52
2018-07-05T02:00:27.957Z,18.54
2018-07-05T02:01:27.877Z,18.58
2018-07-05T02:02:27.815Z,18.52
2018-07-05T02:03:27.738Z,18.50
2018-07-05T02:04:27.667Z,18.50
2018-07-05T02:05:27.609Z,18.39
2018-07-05T02:06:27.538Z,18.41
2018-07-05T02:07:27.479Z,18.41
2018-07-05T02:08:27.389Z,18.55
2018-07-05T02:09:27.372Z,18.48
2018-07-05T02:10:27.262Z,18.47
2018-07-05T02:11:27.187Z,18.50
2018-07-05T02:12:28.109Z,18.47
2018-07-05T02:13:27.031Z,18.44
2018-07-05T02:14:26.973Z,18.50
2018-07-05T02:15:26.887Z,18.54
2018-07-05T02:16:26.822Z,18.54
2018-07-05T02:17:26.752Z,18.51
2018-07-05T02:18:26.677Z,18.51
2018-07-05T02:19:26.621Z,18.51
2018-07-05T02:20:26.538Z,18.36
2018-07-05T02:21:26.469Z,18.42
2018-07-05T02:22:26.431Z,18.41
2018-07-05T02:23:26.355Z,18.42
2018-07-05T02:24:26.268Z,18.35
2018-07-05T02:25:26.201Z,18.37
2018-07-05T02:26:26.105Z,18.32
2018-07-05T02:27:26.100Z,18.37
2018-07-05T02:28:25.974Z,18.36
2018-07-05T02:29:25.923Z,18.39
2018-07-05T02:30:25.830Z,18.32
2018-07-05T02:31:25.769Z,18.42
2018-07-05T02:32:25.709Z,18.37
2018-07-05T02:33:25.626Z,18.29
2018-07-05T02:34:25.570Z,18.32
2018-07-05T02:35:25.490Z,18.33
2018-07-05T02:36:25.431Z,18.26
2018-07-05T02:37:25.343Z,18.29
2018-07-05T02:38:25.274Z,18.30
2018-07-05T02:39:25.205Z,18.26
2018-07-05T02:40:25.131Z,18.33
2018-07-05T02:41:25.051Z,18.29
2018-07-05T02:42:24.978Z,18.30
2018-07-05T02:43:24.938Z,18.20
2018-07-05T02:44:24.846Z,18.26
2018-07-05T02:45:24.774Z,18.26
2018-07-05T02:46:24.711Z,18.27
2018-07-05T02:47:24.645Z,18.26
2018-07-05T02:48:24.584Z,18.18
2018-07-05T02:49:24.499Z,18.27
2018-07-05T02:50:24.412Z,18.17
2018-07-05T02:51:24.353Z,18.11
2018-07-05T02:52:24.274Z,18.12
2018-07-05T02:53:24.209Z,18.12
2018-07-05T02:54:24.172Z,18.17
2018-07-05T02:55:24.071Z,18.14
2018-07-05T02:56:24.024Z,18.30
2018-07-05T02:57:24.462Z,18.26
2018-07-05T02:58:23.851Z,18.29
2018-07-05T02:59:23.796Z,18.27
2018-07-05T03:00:23.734Z,18.17
2018-07-05T03:01:23.651Z,18.20
2018-07-05T03:02:23.577Z,18.21
2018-07-05T03:03:23.498Z,18.23
2018-07-05T03:04:23.439Z,18.20
2018-07-05T03:05:23.391Z,18.25
2018-07-05T03:06:23.296Z,18.18
2018-07-05T03:07:23.216Z,18.27
2018-07-05T03:08:23.145Z,18.25
2018-07-05T03:09:23.073Z,18.33
2018-07-05T03:10:23.026Z,18.26
2018-07-05T03:11:22.945Z,18.25
2018-07-05T03:12:22.863Z,18.32
2018-07-05T03:13:22.815Z,18.20
2018-07-05T03:14:22.722Z,18.27
2018-07-05T03:15:22.653Z,18.23
2018-07-05T03:16:22.603Z,18.21
2018-07-05T03:17:22.516Z,18.21
2018-07-05T03:18:22.429Z,18.18
2018-07-05T03:19:22.358Z,18.15
2018-07-05T03:20:22.289Z,18.17
2018-07-05T03:21:22.242Z,18.15
2018-07-05T03:22:22.179Z,18.23
2018-07-05T03:23:22.105Z,18.20
2018-07-05T03:24:22.023Z,18.12
2018-07-05T03:25:21.943Z,18.10
2018-07-05T03:26:21.912Z,18.11
2018-07-05T03:27:21.793Z,18.05
2018-07-05T03:28:21.729Z,18.05
2018-07-05T03:29:21.654Z,18.02
2018-07-05T03:30:21.616Z,18.08
2018-07-05T03:31:21.518Z,18.02
2018-07-05T03:32:21.488Z,18.03
2018-07-05T03:33:21.368Z,18.00
2018-07-05T03:34:21.295Z,17.96
2018-07-05T03:35:21.226Z,18.03
2018-07-05T03:36:21.143Z,18.02
2018-07-05T03:37:21.094Z,18.00
2018-07-05T03:38:21.035Z,17.99
2018-07-05T03:39:20.960Z,18.00
2018-07-05T03:40:20.859Z,18.02
2018-07-05T03:41:20.830Z,18.02
2018-07-05T03:42:20.726Z,18.03
2018-07-05T03:43:20.666Z,18.00
2018-07-05T03:44:20.596Z,18.07
2018-07-05T03:45:20.531Z,18.02
2018-07-05T03:46:20.449Z,18.10
2018-07-05T03:47:20.384Z,18.02
2018-07-05T03:48:20.298Z,18.07
2018-07-05T03:49:20.231Z,18.07
2018-07-05T03:50:20.156Z,18.02
2018-07-05T03:51:20.095Z,18.00
2018-07-05T03:52:20.057Z,18.11
2018-07-05T03:53:19.966Z,18.00
2018-07-05T03:54:19.871Z,18.18
2018-07-05T03:55:19.831Z,18.02
2018-07-05T03:56:19.790Z,18.10
2018-07-05T03:57:19.673Z,18.08
2018-07-05T03:58:19.597Z,18.02
2018-07-05T03:59:19.545Z,18.05
2018-07-05T04:00:19.443Z,18.17
2018-07-05T04:01:19.405Z,18.10
2018-07-05T04:02:19.315Z,18.12
2018-07-05T04:03:19.229Z,18.26
2018-07-05T04:04:19.168Z,18.30
2018-07-05T04:05:19.120Z,18.25
2018-07-05T04:06:19.026Z,18.26
2018-07-05T04:07:18.951Z,18.32
2018-07-05T04:08:18.913Z,18.30
2018-07-05T04:09:18.806Z,18.30
2018-07-05T04:10:18.751Z,18.36
2018-07-05T04:11:18.687Z,18.27
2018-07-05T04:12:18.599Z,18.29
2018-07-05T04:13:18.523Z,18.32
2018-07-05T04:14:18.493Z,18.37
2018-07-05T04:15:18.399Z,18.30
2018-07-05T04:16:18.314Z,18.36
2018-07-05T04:17:18.278Z,18.32
2018-07-05T04:18:18.190Z,18.35
2018-07-05T04:19:18.108Z,18.33
2018-07-05T04:20:18.034Z,18.35
2018-07-05T04:21:17.951Z,18.37
2018-07-05T04:22:17.901Z,18.35
2018-07-05T04:23:17.823Z,18.35
2018-07-05T04:24:17.757Z,18.52
2018-07-05T04:25:17.684Z,18.48
2018-07-05T04:26:17.616Z,18.55
2018-07-05T04:27:17.536Z,18.50
2018-07-05T04:28:17.501Z,18.52
2018-07-05T04:29:17.404Z,18.52
2018-07-05T04:30:17.325Z,18.58
2018-07-05T04:31:17.277Z,18.62
2018-07-05T04:32:17.183Z,18.52
2018-07-05T04:33:17.136Z,18.55
2018-07-05T04:34:17.072Z,18.54
2018-07-05T04:35:16.983Z,18.47
2018-07-05T04:36:16.899Z,18.52
2018-07-05T04:37:16.841Z,18.54
2018-07-05T04:38:16.752Z,18.58
2018-07-05T04:39:16.710Z,18.63
2018-07-05T04:40:16.635Z,18.70
2018-07-05T04:41:16.557Z,18.78
2018-07-05T04:42:16.478Z,18.82
2018-07-05T04:43:16.407Z,18.76
2018-07-05T04:44:16.335Z,18.85
2018-07-05T04:45:16.280Z,18.76
2018-07-05T04:46:16.192Z,18.81
2018-07-05T04:47:16.129Z,18.80
2018-07-05T04:48:16.051Z,18.87
2018-07-05T04:49:15.992Z,18.90
2018-07-05T04:50:15.920Z,18.91
2018-07-05T04:51:15.846Z,18.95
2018-07-05T04:52:15.767Z,18.98
2018-07-05T04:53:15.699Z,18.94
2018-07-05T04:54:15.627Z,18.99
2018-07-05T04:55:15.606Z,18.99
2018-07-05T04:56:15.491Z,19.04
2018-07-05T04:57:15.420Z,19.08
2018-07-05T04:58:15.374Z,19.07
2018-07-05T04:59:15.289Z,19.06
2018-07-05T05:00:15.213Z,19.10
2018-07-05T05:01:15.130Z,19.21
2018-07-05T05:02:15.070Z,19.18
2018-07-05T05:03:14.988Z,19.10
2018-07-05T05:04:14.943Z,19.13
2018-07-05T05:05:14.885Z,19.07
2018-07-05T05:06:14.784Z,19.10
2018-07-05T05:07:14.735Z,19.13
2018-07-05T05:08:14.642Z,19.19
2018-07-05T05:09:14.588Z,19.29
2018-07-05T05:10:14.504Z,19.32
2018-07-05T05:11:14.427Z,19.41
2018-07-05T05:12:14.389Z,19.39
2018-07-05T05:13:14.339Z,19.46
2018-07-05T05:14:14.236Z,19.48
2018-07-05T05:15:14.159Z,19.43
2018-07-05T05:16:14.148Z,19.44
2018-07-05T05:17:14.036Z,19.47
2018-07-05T05:18:13.958Z,19.51
2018-07-05T05:19:13.886Z,19.55
2018-07-05T05:20:13.840Z,19.51
2018-07-05T05:21:13.734Z,19.54
2018-07-05T05:22:13.667Z,19.66
2018-07-05T05:23:13.620Z,19.65
2018-07-05T05:24:13.534Z,19.74
2018-07-05T05:25:13.462Z,19.80
2018-07-05T05:26:13.389Z,19.78
2018-07-05T05:27:13.339Z,19.84
2018-07-05T05:28:13.331Z,19.84
2018-07-05T05:29:13.203Z,19.84
2018-07-05T05:30:13.097Z,19.88
2018-07-05T05:31:13.040Z,19.98
2018-07-05T05:32:12.961Z,19.87
2018-07-05T05:33:12.895Z,20.01
2018-07-05T05:34:12.829Z,19.99
2018-07-05T05:35:12.752Z,20.05
2018-07-05T05:36:12.712Z,19.96
2018-07-05T05:37:12.626Z,20.01
2018-07-05T05:38:12.570Z,20.10
2018-07-05T05:39:12.486Z,20.14
2018-07-05T05:40:12.398Z,20.16
2018-07-05T05:41:12.353Z,20.17
2018-07-05T05:42:12.260Z,20.18
2018-07-05T05:43:12.190Z,20.11
2018-07-05T05:44:12.127Z,20.35
2018-07-05T05:45:12.048Z,20.38
2018-07-05T05:46:12.001Z,20.23
2018-07-05T05:47:11.913Z,20.38
2018-07-05T05:48:11.914Z,20.23
2018-07-05T05:49:11.772Z,20.31
2018-07-05T05:50:11.745Z,20.32
2018-07-05T05:51:11.669Z,20.47
2018-07-05T05:52:11.565Z,20.55
2018-07-05T05:53:11.504Z,20.54
2018-07-05T05:54:11.432Z,20.55
2018-07-05T05:55:11.360Z,20.66
2018-07-05T05:56:11.311Z,20.61
2018-07-05T05:57:11.259Z,20.67
2018-07-05T05:58:11.148Z,20.73
2018-07-05T05:59:11.080Z,20.91
2018-07-05T06:00:11.194Z,20.87
2018-07-05T06:01:10.963Z,20.84
2018-07-05T06:02:10.891Z,20.79
2018-07-05T06:03:10.906Z,20.80
2018-07-05T06:04:10.810Z,20.88
2018-07-05T06:05:10.815Z,20.91
2018-07-05T06:06:10.693Z,20.92
2018-07-05T06:07:10.526Z,20.95
2018-07-05T06:08:10.627Z,21.03
2018-07-05T06:09:10.387Z,21.04
2018-07-05T06:10:10.336Z,21.17
2018-07-05T06:11:10.251Z,21.16
2018-07-05T06:12:10.187Z,21.27
2018-07-05T06:13:10.136Z,21.27
2018-07-05T06:14:10.036Z,21.21
2018-07-05T06:15:09.963Z,21.28
2018-07-05T06:16:09.966Z,21.43
2018-07-05T06:17:09.836Z,21.43
2018-07-05T06:18:09.765Z,21.54
2018-07-05T06:19:09.697Z,21.53
2018-07-05T06:20:09.638Z,21.52
2018-07-05T06:21:09.559Z,21.61
2018-07-05T06:22:09.485Z,21.52
2018-07-05T06:23:09.507Z,21.56
2018-07-05T06:24:09.367Z,21.56
2018-07-05T06:25:09.297Z,21.59
2018-07-05T06:26:09.257Z,21.56
2018-07-05T06:27:09.159Z,21.43
2018-07-05T06:28:09.113Z,21.49
2018-07-05T06:29:09.033Z,21.37
2018-07-05T06:30:08.956Z,21.53
2018-07-05T06:31:08.877Z,21.52
2018-07-05T06:32:08.813Z,21.59
2018-07-05T06:33:08.755Z,21.59
2018-07-05T06:34:08.701Z,21.67
2018-07-05T06:35:08.667Z,21.65
2018-07-05T06:36:08.538Z,21.64
2018-07-05T06:37:08.475Z,21.79
2018-07-05T06:38:08.393Z,21.69
2018-07-05T06:39:08.324Z,21.75
2018-07-05T06:40:08.255Z,21.82
2018-07-05T06:41:08.180Z,22.00
2018-07-05T06:42:08.117Z,22.03
2018-07-05T06:43:08.041Z,21.94
2018-07-05T06:44:07.973Z,21.84
2018-07-05T06:45:07.904Z,21.88
2018-07-05T06:46:07.840Z,22.02
2018-07-05T06:47:07.784Z,22.00
2018-07-05T06:48:07.702Z,21.88
2018-07-05T06:49:07.633Z,21.99
2018-07-05T06:50:07.583Z,22.00
2018-07-05T06:51:07.497Z,22.03
2018-07-05T06:52:07.428Z,22.12
2018-07-05T06:53:07.452Z,22.05
2018-07-05T06:54:07.290Z,22.06
2018-07-05T06:55:07.232Z,22.09
2018-07-05T06:56:07.160Z,22.24
2018-07-05T06:57:07.088Z,22.28
2018-07-05T06:58:07.017Z,22.27
2018-07-05T06:59:06.990Z,22.30
2018-07-05T07:00:06.882Z,22.33
2018-07-05T07:01:06.816Z,22.31
2018-07-05T07:02:06.744Z,22.31
2018-07-05T07:03:06.680Z,22.35
2018-07-05T07:04:06.609Z,22.40
2018-07-05T07:05:06.538Z,22.37
2018-07-05T07:06:06.467Z,22.35
2018-07-05T07:07:06.402Z,22.36
2018-07-05T07:08:06.380Z,22.42
2018-07-05T07:09:06.283Z,22.46
2018-07-05T07:10:06.201Z,22.54
2018-07-05T07:11:06.130Z,22.57
2018-07-05T07:12:06.061Z,22.60
2018-07-05T07:13:05.995Z,22.58
2018-07-05T07:14:05.925Z,22.64
2018-07-05T07:15:05.865Z,22.73
2018-07-05T07:16:05.861Z,22.76
2018-07-05T07:17:05.724Z,22.77
2018-07-05T07:18:05.654Z,22.95
2018-07-05T07:19:05.596Z,22.92
2018-07-05T07:20:05.521Z,22.97
2018-07-05T07:21:05.454Z,23.12
2018-07-05T07:22:05.397Z,23.02
2018-07-05T07:23:05.317Z,23.05
2018-07-05T07:24:05.250Z,23.10
2018-07-05T07:25:05.181Z,23.01
2018-07-05T07:26:05.111Z,23.10
2018-07-05T07:27:05.044Z,23.22
2018-07-05T07:28:04.980Z,23.20
2018-07-05T07:29:04.913Z,23.31
2018-07-05T07:30:04.844Z,23.40
2018-07-05T07:31:04.777Z,23.46
2018-07-05T07:32:04.719Z,23.50
2018-07-05T07:33:04.644Z,23.57
2018-07-05T07:34:04.571Z,23.63
2018-07-05T07:35:04.504Z,23.73
2018-07-05T07:36:04.438Z,23.83
2018-07-05T07:37:04.367Z,23.87
2018-07-05T07:38:04.299Z,23.91
2018-07-05T07:39:04.233Z,23.85
2018-07-05T07:40:04.167Z,23.87
2018-07-05T07:41:04.100Z,23.90
2018-07-05T07:42:04.045Z,23.95
2018-07-05T07:43:03.965Z,23.91
2018-07-05T07:44:03.896Z,23.90
2018-07-05T07:45:03.851Z,23.80
2018-07-05T07:46:03.766Z,23.94
2018-07-05T07:47:03.700Z,23.91
2018-07-05T07:48:03.633Z,23.94
2018-07-05T07:49:03.568Z,23.88
2018-07-05T07:50:03.495Z,23.97
2018-07-05T07:51:03.434Z,24.02
2018-07-05T07:52:03.361Z,24.03
2018-07-05T07:53:03.298Z,24.10
2018-07-05T07:54:03.228Z,24.08
2018-07-05T07:55:03.163Z,24.21
2018-07-05T07:56:03.090Z,24.21
2018-07-05T07:57:03.026Z,24.06
2018-07-05T07:58:02.959Z,24.16
2018-07-05T07:59:02.937Z,24.15
2018-07-05T08:00:02.849Z,24.10
2018-07-05T08:01:02.774Z,24.24
2018-07-05T08:02:02.691Z,24.10
2018-07-05T08:03:02.624Z,24.08
2018-07-05T08:04:02.562Z,24.09
2018-07-05T08:05:02.488Z,24.02
2018-07-05T08:06:02.423Z,24.05
2018-07-05T08:07:02.357Z,24.06
2018-07-05T08:08:02.298Z,24.00
2018-07-05T08:09:02.229Z,23.95
2018-07-05T08:10:02.227Z,24.09
2018-07-05T08:11:02.120Z,24.18
2018-07-05T08:12:02.044Z,24.09
2018-07-05T08:13:01.956Z,24.18
2018-07-05T08:14:01.906Z,24.28
2018-07-05T08:15:01.890Z,24.22
2018-07-05T08:16:01.762Z,24.12
2018-07-05T08:17:01.721Z,24.18
2018-07-05T08:18:01.658Z,24.22
2018-07-05T08:19:01.566Z,24.25
2018-07-05T08:20:01.494Z,24.31
2018-07-05T08:21:01.427Z,24.47
2018-07-05T08:22:01.992Z,24.50
2018-07-05T08:23:01.348Z,24.45
2018-07-05T08:24:01.275Z,24.40
2018-07-05T08:25:01.167Z,24.46
2018-07-05T08:26:01.128Z,24.47
2018-07-05T08:27:01.084Z,24.55
2018-07-05T08:28:00.964Z,24.62
2018-07-05T08:29:00.902Z,24.71
2018-07-05T08:30:00.996Z,24.73
2018-07-05T08:31:00.803Z,24.81
2018-07-05T08:32:00.705Z,24.90
2018-07-05T08:33:00.706Z,24.84
2018-07-05T08:34:00.660Z,24.83
2018-07-05T08:35:00.511Z,24.88
2018-07-05T08:36:00.635Z,24.95
2018-07-05T08:37:01.022Z,24.91
2018-07-05T08:38:00.309Z,24.83
2018-07-05T08:39:00.239Z,24.81
2018-07-05T08:40:00.173Z,24.80
2018-07-05T08:41:00.104Z,24.81
2018-07-05T08:42:00.056Z,24.76
2018-07-05T08:43:00.011Z,24.71
2018-07-05T08:44:00.036Z,24.90
2018-07-05T08:44:59.875Z,25.02
2018-07-05T08:45:59.818Z,24.95
2018-07-05T08:46:59.711Z,24.90
2018-07-05T08:47:59.661Z,24.99
2018-07-05T08:48:59.642Z,25.03
2018-07-05T08:49:59.584Z,24.99
2018-07-05T08:50:59.464Z,24.98
2018-07-05T08:51:59.386Z,25.02
2018-07-05T08:52:59.352Z,25.03
2018-07-05T08:53:59.330Z,25.00
2018-07-05T08:54:59.266Z,24.99
2018-07-05T08:55:59.124Z,24.91
2018-07-05T08:56:59.074Z,24.96
2018-07-05T08:57:59.001Z,25.03
2018-07-05T08:58:58.934Z,25.10
2018-07-05T08:59:58.862Z,25.15
2018-07-05T09:00:58.794Z,25.13
2018-07-05T09:01:58.731Z,25.27
2018-07-05T09:02:58.665Z,25.15
2018-07-05T09:03:58.604Z,25.14
2018-07-05T09:04:58.537Z,25.23
2018-07-05T09:05:58.496Z,25.25
2018-07-05T09:06:58.407Z,25.27
2018-07-05T09:07:58.337Z,25.23
2018-07-05T09:08:58.275Z,25.06
2018-07-05T09:09:58.207Z,25.14
2018-07-05T09:10:58.147Z,25.14
2018-07-05T09:11:58.087Z,25.06
2018-07-05T09:12:58.029Z,24.87
2018-07-05T09:13:57.975Z,24.90
2018-07-05T09:14:57.879Z,24.80
2018-07-05T09:15:57.815Z,24.88
2018-07-05T09:16:57.748Z,24.91
2018-07-05T09:17:57.819Z,24.99
2018-07-05T09:18:57.618Z,25.05
2018-07-05T09:19:57.550Z,25.03
2018-07-05T09:20:57.490Z,25.09
2018-07-05T09:21:57.419Z,25.14
2018-07-05T09:22:57.380Z,25.21
2018-07-05T09:23:57.289Z,25.05
2018-07-05T09:24:57.222Z,25.05
2018-07-05T09:25:57.157Z,24.93
2018-07-05T09:26:57.093Z,24.87
2018-07-05T09:27:57.025Z,24.98
2018-07-05T09:28:57.566Z,25.05
2018-07-05T09:29:56.897Z,25.15
2018-07-05T09:30:56.836Z,25.20
2018-07-05T09:31:56.770Z,25.33
2018-07-05T09:32:56.706Z,25.51
2018-07-05T09:33:56.635Z,25.61
2018-07-05T09:34:56.561Z,25.75
2018-07-05T09:35:56.518Z,25.77
2018-07-05T09:36:56.455Z,25.80
2018-07-05T09:37:56.374Z,25.87
2018-07-05T09:38:56.313Z,25.97
2018-07-05T09:39:56.244Z,26.05
2018-07-05T09:40:56.190Z,26.10
2018-07-05T09:41:56.114Z,26.18
2018-07-05T09:42:56.049Z,26.15
2018-07-05T09:43:55.986Z,26.21
2018-07-05T09:44:56.407Z,26.23
2018-07-05T09:45:55.860Z,26.32
2018-07-05T09:46:55.799Z,26.25
2018-07-05T09:47:55.729Z,26.28
2018-07-05T09:48:55.664Z,25.98
2018-07-05T09:49:55.595Z,25.67
2018-07-05T09:50:55.537Z,25.55
2018-07-05T09:51:55.469Z,25.62
2018-07-05T09:52:55.404Z,25.83
2018-07-05T09:53:55.337Z,26.06
2018-07-05T09:54:55.271Z,26.15
2018-07-05T09:55:55.216Z,26.10
2018-07-05T09:56:55.144Z,26.15
2018-07-05T09:57:55.094Z,26.33
2018-07-05T09:58:55.016Z,26.39
2018-07-05T09:59:54.950Z,26.40
2018-07-05T10:00:54.888Z,26.45
2018-07-05T10:01:54.823Z,26.35
2018-07-05T10:02:54.757Z,26.30
2018-07-05T10:03:54.699Z,26.39
2018-07-05T10:04:54.630Z,26.48
2018-07-05T10:05:54.566Z,26.39
2018-07-05T10:06:54.503Z,26.29
2018-07-05T10:07:54.441Z,26.25
2018-07-05T10:08:54.374Z,26.18
2018-07-05T10:09:54.307Z,26.09
2018-07-05T10:10:54.242Z,25.98
2018-07-05T10:11:54.180Z,25.97
2018-07-05T10:12:54.120Z,25.92
2018-07-05T10:13:54.135Z,25.85
2018-07-05T10:14:53.985Z,25.98
2018-07-05T10:15:53.922Z,25.87
2018-07-05T10:16:53.861Z,25.97
2018-07-05T10:17:53.796Z,25.94
2018-07-05T10:18:53.794Z,26.05
2018-07-05T10:19:53.665Z,26.07
2018-07-05T10:20:53.602Z,26.26
2018-07-05T10:21:53.566Z,26.30
2018-07-05T10:22:53.475Z,26.37
2018-07-05T10:23:53.406Z,26.45
2018-07-05T10:24:53.348Z,26.48
2018-07-05T10:25:53.383Z,26.15
2018-07-05T10:26:53.245Z,26.26
2018-07-05T10:27:53.185Z,26.26
2018-07-05T10:28:53.115Z,26.07
2018-07-05T10:29:53.045Z,26.12
2018-07-05T10:30:52.990Z,26.33
2018-07-05T10:31:52.897Z,26.01
2018-07-05T10:32:52.917Z,26.26
2018-07-05T10:33:52.815Z,26.23
2018-07-05T10:34:52.708Z,26.33
2018-07-05T10:35:52.659Z,26.35
2018-07-05T10:36:52.611Z,26.36
2018-07-05T10:37:52.580Z,26.57
2018-07-05T10:38:52.445Z,26.73
2018-07-05T10:39:52.386Z,26.88
2018-07-05T10:40:52.384Z,26.97
2018-07-05T10:41:52.354Z,26.89
2018-07-05T10:42:52.209Z,26.72
2018-07-05T10:43:52.125Z,26.44
2018-07-05T10:44:52.117Z,26.52
2018-07-05T10:45:52.031Z,26.63
2018-07-05T10:46:51.942Z,26.73
2018-07-05T10:47:51.878Z,26.65
2018-07-05T10:48:51.813Z,26.65
2018-07-05T10:49:51.747Z,26.80
2018-07-05T10:50:51.699Z,27.02
2018-07-05T10:51:51.623Z,27.10
2018-07-05T10:52:51.557Z,27.24
2018-07-05T10:53:51.535Z,27.14
2018-07-05T10:54:51.428Z,27.18
2018-07-05T10:55:51.394Z,27.14
2018-07-05T10:56:51.304Z,26.99
2018-07-05T10:57:51.241Z,27.09
2018-07-05T10:58:51.173Z,27.06
2018-07-05T10:59:51.116Z,27.24
2018-07-05T11:00:51.096Z,27.17
2018-07-05T11:01:51.087Z,27.19
2018-07-05T11:02:50.939Z,27.02
2018-07-05T11:03:50.864Z,26.67
2018-07-05T11:04:50.803Z,26.50
2018-07-05T11:05:50.741Z,26.67
2018-07-05T11:06:50.675Z,26.50
2018-07-05T11:07:50.607Z,26.82
2018-07-05T11:08:50.551Z,26.94
2018-07-05T11:09:50.476Z,27.09
2018-07-05T11:10:50.437Z,27.03
2018-07-05T11:11:50.350Z,27.06
2018-07-05T11:12:50.294Z,27.03
2018-07-05T11:13:50.229Z,26.75
2018-07-05T11:14:50.241Z,26.76
2018-07-05T11:15:50.113Z,26.88
2018-07-05T11:16:50.033Z,27.13
2018-07-05T11:17:49.970Z,27.29
2018-07-05T11:18:49.910Z,27.22
2018-07-05T11:19:49.847Z,27.27
2018-07-05T11:20:49.843Z,27.47
2018-07-05T11:21:49.716Z,27.66
2018-07-05T11:22:49.656Z,27.67
2018-07-05T11:23:49.592Z,28.04
2018-07-05T11:24:49.533Z,28.11
2018-07-05T11:25:49.463Z,28.25
2018-07-05T11:26:49.401Z,28.06
2018-07-05T11:27:49.339Z,28.07
2018-07-05T11:28:49.277Z,27.75
2018-07-05T11:29:49.212Z,27.69
2018-07-05T11:30:49.155Z,27.57
2018-07-05T11:31:49.093Z,27.39
2018-07-05T11:32:49.024Z,27.54
2018-07-05T11:33:48.963Z,27.44
2018-07-05T11:34:48.901Z,27.32
2018-07-05T11:35:48.844Z,27.44
2018-07-05T11:36:48.777Z,27.50
2018-07-05T11:37:48.716Z,27.77
2018-07-05T11:38:48.648Z,27.65
2018-07-05T11:39:48.585Z,27.60
2018-07-05T11:40:48.524Z,27.67
2018-07-05T11:41:48.469Z,27.74
2018-07-05T11:42:48.538Z,27.62
2018-07-05T11:43:48.335Z,27.47
2018-07-05T11:44:48.273Z,27.54
2018-07-05T11:45:48.210Z,27.40
2018-07-05T11:46:48.219Z,27.37
2018-07-05T11:47:48.100Z,27.22
2018-07-05T11:48:48.019Z,27.28
2018-07-05T11:49:47.954Z,27.25
2018-07-05T11:50:47.893Z,27.31
2018-07-05T11:51:47.831Z,27.54
2018-07-05T11:52:47.770Z,27.60
2018-07-05T11:53:47.704Z,27.59
2018-07-05T11:54:47.660Z,27.72
2018-07-05T11:55:47.582Z,27.77
2018-07-05T11:56:47.524Z,27.94
2018-07-05T11:57:47.452Z,28.03
2018-07-05T11:58:47.456Z,27.87
2018-07-05T11:59:47.327Z,28.06
2018-07-05T12:00:47.261Z,28.03
2018-07-05T12:01:47.197Z,27.96
2018-07-05T12:02:47.153Z,27.82
2018-07-05T12:03:47.074Z,27.77
2018-07-05T12:04:47.012Z,27.51
2018-07-05T12:05:46.943Z,27.50
2018-07-05T12:06:46.892Z,27.50
2018-07-05T12:07:46.827Z,27.55
2018-07-05T12:08:46.848Z,27.65
2018-07-05T12:09:46.714Z,27.62
2018-07-05T12:10:46.631Z,27.62
2018-07-05T12:11:46.575Z,27.75
2018-07-05T12:12:46.508Z,27.77
2018-07-05T12:13:46.444Z,27.94
2018-07-05T12:14:46.376Z,28.04
2018-07-05T12:15:46.313Z,28.14
2018-07-05T12:16:46.259Z,28.25
2018-07-05T12:17:46.194Z,28.41
2018-07-05T12:18:46.122Z,28.58
2018-07-05T12:19:46.085Z,28.58
2018-07-05T12:20:46.008Z,28.67
2018-07-05T12:21:45.929Z,28.58
2018-07-05T12:22:45.873Z,28.46
2018-07-05T12:23:45.819Z,28.09
2018-07-05T12:24:45.750Z,28.03
2018-07-05T12:25:45.682Z,27.81
2018-07-05T12:26:45.691Z,27.67
2018-07-05T12:27:45.557Z,27.54
2018-07-05T12:28:45.497Z,27.40
2018-07-05T12:29:45.432Z,27.39
2018-07-05T12:30:45.368Z,27.39
2018-07-05T12:31:45.307Z,27.40
2018-07-05T12:32:45.240Z,27.59
2018-07-05T12:33:45.185Z,27.60
2018-07-05T12:34:46.075Z,27.65
2018-07-05T12:35:45.046Z,27.70
2018-07-05T12:36:44.984Z,27.72
2018-07-05T12:37:44.933Z,27.70
2018-07-05T12:38:44.857Z,27.67
2018-07-05T12:39:45.282Z,27.77
2018-07-05T12:40:44.732Z,27.78
2018-07-05T12:41:44.665Z,27.74
2018-07-05T12:42:44.599Z,27.40
2018-07-05T12:43:44.533Z,27.24
2018-07-05T12:44:44.482Z,27.22
2018-07-05T12:45:44.445Z,27.22
2018-07-05T12:46:44.347Z,27.28
2018-07-05T12:47:44.314Z,27.32
2018-07-05T12:48:44.232Z,27.22
2018-07-05T12:49:44.160Z,27.12
2018-07-05T12:50:44.127Z,27.19
2018-07-05T12:51:44.032Z,27.34